Time;durP1;ratioP1;P1;durP2;ratioP2;P2;SDS_P1;SDS_P2;PMS_P1;PMS_P2;Temp;Humidity;BMP_temperature;BMP_pressure;BME280_temperature;BME280_humidity;BME280_pressure;Samples;Min_cycle;Max_cycle;Signal;HPM_P1;HPM_P2
2022/01/10 00:02:43;;;;;;;21.15;6.45;;;2.20;99.90;;;;;;2138574;66;20183;-73
2022/01/10 00:05:28;;;;;;;27.70;7.80;;;2.30;99.90;;;;;;2130280;67;20243;-73
2022/01/10 00:08:12;;;;;;;20.52;6.70;;;2.30;99.90;;;;;;2130837;67;20262;-73
2022/01/10 00:10:54;;;;;;;22.75;7.45;;;2.30;99.90;;;;;;2130952;67;20325;-74
2022/01/10 00:13:35;;;;;;;20.10;6.90;;;2.30;99.90;;;;;;2138961;66;20199;-75
2022/01/10 00:16:17;;;;;;;15.55;6.10;;;2.20;99.90;;;;;;2144692;66;20268;-74
2022/01/10 00:18:59;;;;;;;20.20;6.70;;;2.20;99.90;;;;;;2149046;66;20367;-75
2022/01/10 00:21:42;;;;;;;16.45;5.80;;;2.20;99.90;;;;;;2159891;65;20185;-74
2022/01/10 00:24:26;;;;;;;14.13;6.53;;;2.10;99.90;;;;;;2182211;65;20404;-73
2022/01/10 00:27:08;;;;;;;15.50;5.78;;;2.10;99.90;;;;;;2175226;65;20191;-74
2022/01/10 00:29:50;;;;;;;18.02;6.20;;;2.10;99.90;;;;;;2173234;65;20489;-75
2022/01/10 00:32:32;;;;;;;13.30;6.57;;;2.40;99.90;;;;;;2179874;65;20303;-74
2022/01/10 00:35:16;;;;;;;23.05;6.53;;;2.00;99.90;;;;;;2173814;65;20771;-74
2022/01/10 00:38:01;;;;;;;24.83;7.07;;;2.10;99.90;;;;;;2178704;65;20329;-74
2022/01/10 00:40:49;;;;;;;24.33;8.23;;;1.90;99.90;;;;;;2176487;65;20216;-74
2022/01/10 00:43:33;;;;;;;17.55;7.47;;;1.90;99.90;;;;;;2158905;66;20172;-75
2022/01/10 00:46:16;;;;;;;17.88;7.93;;;1.80;99.90;;;;;;2177440;65;20168;-74
2022/01/10 00:49:01;;;;;;;20.08;6.85;;;1.80;99.90;;;;;;2165171;65;20281;-74
2022/01/10 00:51:45;;;;;;;20.50;7.68;;;1.90;99.90;;;;;;2168080;66;20309;-74
2022/01/10 00:54:29;;;;;;;26.38;6.95;;;1.80;99.90;;;;;;2175901;65;20690;-73
2022/01/10 00:57:13;;;;;;;19.38;7.38;;;1.70;99.90;;;;;;2172918;65;20176;-74
2022/01/10 00:59:55;;;;;;;18.40;7.45;;;1.70;99.90;;;;;;2161078;66;20302;-75
2022/01/10 01:02:37;;;;;;;19.05;7.38;;;2.20;99.90;;;;;;2145206;66;20214;-74
2022/01/10 01:05:21;;;;;;;16.02;7.35;;;1.60;99.90;;;;;;2143340;66;20280;-73
2022/01/10 01:08:06;;;;;;;18.80;7.75;;;1.50;99.90;;;;;;2147703;66;20715;-73
2022/01/10 01:11:15;;;;;;;21.70;6.45;;;1.50;99.90;;;;;;2154156;66;20362;-73
2022/01/10 01:14:00;;;;;;;19.48;6.28;;;1.40;99.90;;;;;;2151622;66;20186;-74
2022/01/10 01:16:56;;;;;;;18.73;6.45;;;2.10;99.90;;;;;;2148903;66;20362;-74
2022/01/10 01:25:41;;;;;;;17.45;7.63;;;1.20;99.90;;;;;;2146779;66;20201;-73
2022/01/10 01:28:23;;;;;;;19.37;7.23;;;1.20;99.90;;;;;;2150274;66;20280;-74
2022/01/10 01:31:05;;;;;;;22.73;8.02;;;1.20;99.90;;;;;;2150230;66;20337;-73
2022/01/10 01:33:47;;;;;;;22.98;8.18;;;1.20;99.90;;;;;;2160104;66;20197;-74
2022/01/10 01:36:30;;;;;;;23.25;8.48;;;1.30;99.90;;;;;;2152954;66;20261;-73
2022/01/10 01:39:22;;;;;;;22.67;8.45;;;1.30;99.90;;;;;;2147489;66;20715;-74
2022/01/10 01:42:31;;;;;;;20.92;8.13;;;1.30;99.90;;;;;;2146484;66;20548;-73
2022/01/10 01:45:15;;;;;;;23.02;8.60;;;1.20;99.90;;;;;;2149530;66;20482;-73
2022/01/10 01:48:00;;;;;;;19.67;8.05;;;1.20;99.90;;;;;;2147472;66;20360;-73
2022/01/10 01:50:41;;;;;;;22.83;7.60;;;1.20;99.90;;;;;;2139583;66;20290;-73
2022/01/10 01:53:25;;;;;;;21.75;7.25;;;1.20;99.90;;;;;;2139512;66;20178;-75
2022/01/10 01:56:10;;;;;;;25.05;8.48;;;1.20;99.90;;;;;;2146845;66;20195;-73
2022/01/10 01:58:55;;;;;;;24.85;8.18;;;1.10;99.90;;;;;;2146595;66;20632;-74
2022/01/10 02:01:39;;;;;;;18.38;7.80;;;1.10;99.90;;;;;;2139190;66;20182;-73
2022/01/10 02:04:20;;;;;;;26.88;8.38;;;1.00;99.90;;;;;;2134676;67;20251;-72
2022/01/10 02:07:02;;;;;;;21.77;8.27;;;1.00;99.90;;;;;;2154398;66;20178;-73
2022/01/10 02:09:44;;;;;;;19.48;8.57;;;1.00;99.90;;;;;;2161597;66;20341;-73
2022/01/10 02:12:26;;;;;;;24.70;8.02;;;1.00;99.90;;;;;;2171351;65;20166;-74
2022/01/10 02:15:08;;;;;;;26.60;8.85;;;1.00;99.90;;;;;;2182902;65;20304;-74
2022/01/10 02:17:55;;;;;;;19.63;7.97;;;1.00;99.90;;;;;;2185726;65;20350;-73
2022/01/10 02:20:37;;;;;;;18.73;8.05;;;1.00;99.90;;;;;;2176705;65;20179;-74
2022/01/10 02:23:18;;;;;;;27.85;8.95;;;1.00;99.90;;;;;;2170788;65;20241;-73
2022/01/10 02:26:02;;;;;;;25.67;9.40;;;1.00;99.90;;;;;;2178851;65;20199;-74
2022/01/10 02:28:47;;;;;;;20.35;8.07;;;0.50;99.90;;;;;;2183866;65;20242;-74
2022/01/10 02:31:39;;;;;;;23.38;8.82;;;0.80;99.90;;;;;;2168891;65;20306;-73
2022/01/10 02:34:26;;;;;;;25.60;9.55;;;0.80;99.90;;;;;;2146904;66;20220;-74
2022/01/10 02:37:10;;;;;;;23.05;8.23;;;1.10;99.90;;;;;;2146685;66;20174;-72
2022/01/10 02:39:52;;;;;;;20.27;8.82;;;0.80;99.90;;;;;;2142652;66;20289;-73
2022/01/10 02:42:36;;;;;;;23.55;9.32;;;0.70;99.90;;;;;;2129516;67;20475;-73
2022/01/10 02:45:20;;;;;;;27.15;10.23;;;0.70;99.90;;;;;;2134378;67;20176;-71
2022/01/10 02:48:04;;;;;;;20.13;9.27;;;0.70;99.90;;;;;;2145029;66;20401;-73
2022/01/10 02:50:47;;;;;;;22.27;8.45;;;0.70;99.90;;;;;;2138378;67;20336;-73
2022/01/10 02:53:30;;;;;;;25.83;9.35;;;0.70;99.90;;;;;;2145545;66;20262;-74
2022/01/10 02:56:21;;;;;;;25.88;9.25;;;0.60;99.90;;;;;;2157316;66;20275;-73
2022/01/10 02:58:58;;;;;;;26.83;9.82;;;0.50;99.90;;;;;;2176687;65;20187;-74
2022/01/10 03:01:35;;;;;;;21.10;9.85;;;1.10;99.90;;;;;;2185546;65;20178;-72
2022/01/10 03:04:12;;;;;;;20.55;9.48;;;0.50;99.90;;;;;;2183619;65;20210;-74
2022/01/10 03:06:48;;;;;;;20.20;9.68;;;0.40;99.90;;;;;;2192268;65;20165;-73
2022/01/10 03:09:25;;;;;;;28.83;12.13;;;0.50;99.90;;;;;;2208337;64;20196;-74
2022/01/10 03:12:01;;;;;;;24.77;9.70;;;0.50;99.90;;;;;;2218094;64;20184;-73
2022/01/10 03:14:58;;;;;;;22.30;11.18;;;0.40;99.90;;;;;;2223165;64;20274;-73
2022/01/10 03:17:28;;;;;;;30.92;11.05;;;0.40;99.90;;;;;;2210419;64;20232;-73
2022/01/10 03:20:09;;;;;;;31.95;10.95;;;0.50;99.90;;;;;;2220813;64;20167;-72
2022/01/10 03:23:00;;;;;;;30.95;11.82;;;0.50;99.90;;;;;;2205455;64;20192;-74
2022/01/10 03:25:50;;;;;;;27.58;10.98;;;0.50;99.90;;;;;;2199657;64;20213;-74
2022/01/10 03:28:40;;;;;;;26.15;11.23;;;0.50;99.90;;;;;;2198454;65;20205;-73
2022/01/10 03:31:18;;;;;;;27.65;12.10;;;0.50;99.90;;;;;;2199614;65;20299;-75
2022/01/10 03:33:57;;;;;;;31.83;12.32;;;0.50;99.90;;;;;;2200742;65;20346;-74
2022/01/10 03:36:36;;;;;;;30.63;12.43;;;0.50;99.90;;;;;;2202716;65;20223;-74
2022/01/10 03:39:14;;;;;;;26.90;13.02;;;0.50;99.90;;;;;;2198943;65;20172;-74
2022/01/10 03:41:54;;;;;;;25.90;11.98;;;0.50;99.90;;;;;;2198876;65;20245;-74
2022/01/10 03:44:32;;;;;;;32.70;13.18;;;0.50;99.90;;;;;;2201637;64;20274;-74
2022/01/10 03:47:25;;;;;;;43.30;12.90;;;0.50;99.90;;;;;;2200489;64;20239;-74
2022/01/10 03:50:02;;;;;;;37.58;12.30;;;0.50;99.90;;;;;;2229321;64;20280;-72
2022/01/10 03:52:42;;;;;;;34.83;13.93;;;0.50;99.90;;;;;;2229102;64;20195;-74
2022/01/10 03:55:24;;;;;;;29.13;11.68;;;0.50;99.90;;;;;;2228014;64;20179;-74
2022/01/10 03:58:07;;;;;;;34.42;13.60;;;0.40;99.90;;;;;;2225170;64;20242;-75
2022/01/10 04:00:50;;;;;;;28.05;13.95;;;0.50;99.90;;;;;;2214846;64;20349;-73
2022/01/10 04:03:32;;;;;;;30.10;13.05;;;0.50;99.90;;;;;;2214662;64;20270;-74
2022/01/10 04:06:15;;;;;;;35.17;13.85;;;0.40;99.90;;;;;;2202847;64;20165;-72
2022/01/10 04:08:57;;;;;;;35.83;13.27;;;0.50;99.90;;;;;;2206907;64;20196;-72
2022/01/10 04:11:41;;;;;;;33.70;14.35;;;0.30;99.90;;;;;;2204205;64;20289;-72
2022/01/10 04:14:22;;;;;;;37.80;14.82;;;0.40;99.90;;;;;;2195972;65;20238;-73
2022/01/10 04:17:04;;;;;;;27.23;12.60;;;0.20;99.90;;;;;;2188244;65;20342;-74
2022/01/10 04:19:46;;;;;;;31.10;12.73;;;0.10;99.90;;;;;;2168845;65;20408;-72
2022/01/10 04:22:28;;;;;;;39.45;13.85;;;0.10;99.90;;;;;;2161120;66;20781;-71
2022/01/10 04:25:11;;;;;;;34.33;14.18;;;0.10;99.90;;;;;;2153072;66;20308;-74
2022/01/10 04:27:53;;;;;;;29.42;14.68;;;0.00;99.90;;;;;;2169147;65;20164;-74
2022/01/10 04:30:35;;;;;;;32.28;14.77;;;0.10;99.90;;;;;;2183525;65;20584;-73
2022/01/10 04:33:18;;;;;;;38.33;15.90;;;0.00;99.90;;;;;;2182103;65;20400;-73
2022/01/10 04:36:02;;;;;;;33.92;16.77;;;0.00;99.90;;;;;;2182303;65;20179;-73
2022/01/10 04:38:48;;;;;;;44.35;16.75;;;0.00;99.90;;;;;;2181972;65;20167;-73
2022/01/10 04:41:32;;;;;;;37.45;15.13;;;0.00;99.90;;;;;;2166764;66;20324;-74
2022/01/10 04:44:14;;;;;;;38.05;16.10;;;-0.10;99.90;;;;;;2168704;66;20268;-74
2022/01/10 04:46:57;;;;;;;34.05;16.92;;;-0.10;99.90;;;;;;2168468;65;20196;-73
2022/01/10 04:50:04;;;;;;;37.78;15.38;;;-0.10;99.90;;;;;;2144535;66;20676;-75
2022/01/10 04:52:44;;;;;;;47.45;15.88;;;-0.10;99.90;;;;;;2153298;66;20200;-75
2022/01/10 04:55:26;;;;;;;37.97;16.25;;;-0.20;99.90;;;;;;2154370;66;20177;-74
2022/01/10 04:58:08;;;;;;;43.00;17.33;;;-0.20;99.90;;;;;;2161585;66;20285;-74
2022/01/10 05:00:54;;;;;;;44.88;20.38;;;-0.20;99.90;;;;;;2160400;66;20197;-74
2022/01/10 05:03:37;;;;;;;47.13;20.40;;;-0.20;99.90;;;;;;2152220;66;20368;-73
2022/01/10 05:06:22;;;;;;;41.92;18.48;;;-0.10;99.90;;;;;;2154853;66;20407;-74
2022/01/10 05:09:04;;;;;;;45.35;17.90;;;-0.20;99.90;;;;;;2147871;66;20221;-74
2022/01/10 05:11:47;;;;;;;37.20;16.95;;;-0.20;99.90;;;;;;2160595;66;20241;-75
2022/01/10 05:14:33;;;;;;;43.03;18.90;;;-0.20;99.90;;;;;;2147653;66;20297;-74
2022/01/10 05:17:18;;;;;;;46.03;21.48;;;-0.20;99.90;;;;;;2163273;66;20261;-73
2022/01/10 05:20:01;;;;;;;52.92;22.02;;;-0.30;99.90;;;;;;2169856;65;20195;-73
2022/01/10 05:22:44;;;;;;;52.25;21.45;;;-0.30;99.90;;;;;;2168301;65;20419;-74
2022/01/10 05:25:26;;;;;;;47.00;21.40;;;-0.30;99.90;;;;;;2163748;66;20311;-72
2022/01/10 05:28:10;;;;;;;41.63;19.65;;;-0.30;99.90;;;;;;2178527;65;20677;-74
2022/01/10 05:30:55;;;;;;;50.40;23.75;;;0.40;99.90;;;;;;2185416;65;20207;-74
2022/01/10 05:33:37;;;;;;;51.53;23.60;;;-0.30;99.90;;;;;;2184208;65;20499;-74
2022/01/10 05:36:20;;;;;;;55.38;23.05;;;-0.30;99.90;;;;;;2183493;65;20311;-73
2022/01/10 05:39:07;;;;;;;50.38;22.25;;;-0.30;99.90;;;;;;2177625;65;20316;-74
2022/01/10 05:41:49;;;;;;;64.25;26.48;;;-0.30;99.90;;;;;;2179321;65;20239;-73
2022/01/10 05:44:31;;;;;;;57.50;25.83;;;-0.40;99.90;;;;;;2168525;65;20235;-74
2022/01/10 05:47:13;;;;;;;61.40;23.95;;;-0.40;99.90;;;;;;2169012;65;20236;-74
2022/01/10 05:50:01;;;;;;;54.92;26.23;;;-0.40;99.90;;;;;;2161080;66;20312;-74
2022/01/10 05:52:42;;;;;;;60.60;26.55;;;-0.50;99.90;;;;;;2145907;66;20200;-74
2022/01/10 05:55:24;;;;;;;64.38;28.10;;;-0.50;99.90;;;;;;2154763;66;20558;-74
2022/01/10 05:58:07;;;;;;;65.78;29.20;;;-0.20;99.90;;;;;;2154206;66;20190;-74
2022/01/10 06:00:49;;;;;;;52.92;28.15;;;-0.20;99.90;;;;;;2153574;66;20657;-75
2022/01/10 06:03:32;;;;;;;65.55;30.50;;;-0.30;99.90;;;;;;2168206;66;20345;-74
2022/01/10 06:06:17;;;;;;;60.15;29.17;;;-0.30;99.90;;;;;;2174882;65;20400;-74
2022/01/10 06:09:02;;;;;;;62.60;26.73;;;-0.30;99.90;;;;;;2176529;65;20815;-74
2022/01/10 06:11:43;;;;;;;63.63;30.13;;;-0.30;99.90;;;;;;2163297;66;20253;-74
2022/01/10 06:14:25;;;;;;;68.30;29.73;;;-0.40;99.90;;;;;;2161410;66;20435;-75
2022/01/10 06:17:08;;;;;;;65.80;28.95;;;-0.40;99.90;;;;;;2153593;66;20378;-74
2022/01/10 06:19:49;;;;;;;74.53;30.80;;;-0.40;99.90;;;;;;2161545;66;20282;-73
2022/01/10 06:22:32;;;;;;;68.75;33.20;;;-0.40;99.90;;;;;;2146690;66;20421;-74
2022/01/10 06:25:18;;;;;;;84.85;35.72;;;-0.40;99.90;;;;;;2161220;66;20369;-73
2022/01/10 06:28:00;;;;;;;75.40;33.40;;;-0.30;99.90;;;;;;2159748;66;20248;-74
2022/01/10 06:30:42;;;;;;;78.15;35.10;;;-0.40;99.90;;;;;;2162401;66;20300;-73
2022/01/10 06:33:24;;;;;;;73.65;32.67;;;-0.40;99.90;;;;;;2159905;66;20383;-75
2022/01/10 06:36:08;;;;;;;69.82;32.40;;;-0.40;99.90;;;;;;2161089;66;20329;-74
2022/01/10 06:38:54;;;;;;;73.55;36.47;;;-0.50;99.90;;;;;;2167235;65;20355;-76
2022/01/10 06:41:37;;;;;;;62.80;28.73;;;-0.50;99.90;;;;;;2175899;65;20264;-75
2022/01/10 06:44:19;;;;;;;69.03;31.77;;;-0.50;99.90;;;;;;2166468;65;20313;-74
2022/01/10 06:47:11;;;;;;;76.20;34.38;;;-0.50;99.90;;;;;;2157113;66;20176;-76
2022/01/10 06:49:56;;;;;;;70.40;31.67;;;-0.50;99.90;;;;;;2174649;65;20441;-75
2022/01/10 06:52:43;;;;;;;67.50;32.17;;;-0.60;99.90;;;;;;2189464;65;20285;-73
2022/01/10 06:55:28;;;;;;;63.00;32.55;;;-0.50;99.90;;;;;;2188465;65;20341;-74
2022/01/10 06:58:10;;;;;;;74.40;31.55;;;-0.50;99.90;;;;;;2187457;65;20630;-73
2022/01/10 07:00:51;;;;;;;75.85;34.88;;;-0.50;99.90;;;;;;2189272;65;20800;-75
2022/01/10 07:03:34;;;;;;;73.72;32.30;;;-0.60;99.90;;;;;;2188111;65;20259;-75
2022/01/10 07:06:17;;;;;;;81.40;36.85;;;-0.60;99.90;;;;;;2194553;65;20596;-76
2022/01/10 07:09:06;;;;;;;61.97;32.33;;;-0.60;99.90;;;;;;2174831;65;20246;-76
2022/01/10 07:11:50;;;;;;;;;;;-0.60;99.90;;;;;;2175901;65;20743;-74
2022/01/10 07:14:34;;;;;;;66.43;33.88;;;-0.60;99.90;;;;;;2195370;65;20225;-73
2022/01/10 07:17:15;;;;;;;78.97;34.05;;;0.00;99.90;;;;;;2185742;65;20250;-73
2022/01/10 07:19:57;;;;;;;62.47;32.88;;;-0.60;99.90;;;;;;2180147;65;20293;-73
2022/01/10 07:22:39;;;;;;;66.85;32.65;;;-0.60;99.90;;;;;;2162727;65;20304;-72
2022/01/10 07:25:20;;;;;;;70.80;32.33;;;-0.60;99.90;;;;;;2160310;66;20286;-73
2022/01/10 07:28:02;;;;;;;66.90;35.30;;;-0.70;99.90;;;;;;2161111;66;20194;-73
2022/01/10 07:30:44;;;;;;;78.53;33.90;;;-0.70;99.90;;;;;;2152422;66;20218;-72
2022/01/10 07:33:27;;;;;;;79.20;36.83;;;-0.60;99.90;;;;;;2162689;65;20202;-74
2022/01/10 07:36:12;;;;;;;77.40;36.13;;;-0.60;99.90;;;;;;2160388;66;20405;-72
2022/01/10 07:38:55;;;;;;;67.85;35.33;;;-0.50;99.90;;;;;;2160608;66;20403;-72
2022/01/10 07:41:39;;;;;;;86.78;36.60;;;-0.60;99.90;;;;;;2155049;66;20191;-73
2022/01/10 07:44:21;;;;;;;75.50;36.67;;;-0.60;99.90;;;;;;2155181;66;20374;-71
2022/01/10 07:47:04;;;;;;;72.65;34.03;;;-0.60;99.90;;;;;;2170427;65;20336;-71
2022/01/10 07:49:47;;;;;;;67.20;35.55;;;-0.50;99.90;;;;;;2167883;65;20217;-89
2022/01/10 07:52:33;;;;;;;88.60;39.78;;;-0.50;99.90;;;;;;2160052;66;20193;-73
2022/01/10 07:55:19;;;;;;;71.97;35.00;;;-0.40;99.90;;;;;;2160346;66;20339;-74
2022/01/10 07:58:04;;;;;;;86.00;40.15;;;-0.30;99.90;;;;;;2165462;65;20196;-78
2022/01/10 08:00:46;;;;;;;89.38;42.45;;;-0.40;99.90;;;;;;2166053;65;20605;-72
2022/01/10 08:03:30;;;;;;;86.72;42.83;;;-0.30;99.90;;;;;;2158538;66;20200;-74
2022/01/10 08:06:14;;;;;;;;;;;-0.30;99.90;;;;;;2166060;65;20655;-75
2022/01/10 08:08:56;;;;;;;76.90;38.33;;;-0.30;99.90;;;;;;2189488;65;20116;-75
2022/01/10 08:11:41;;;;;;;95.45;41.70;;;-0.30;99.90;;;;;;2174230;65;20312;-78
2022/01/10 08:14:30;;;;;;;90.13;43.30;;;-0.30;99.90;;;;;;2152740;66;20271;-75
2022/01/10 08:17:15;;;;;;;90.63;41.22;;;-0.30;99.90;;;;;;2140700;66;20324;-73
2022/01/10 08:20:00;;;;;;;89.85;45.08;;;-0.30;99.90;;;;;;2144545;66;20629;-73
2022/01/10 08:22:42;;;;;;;98.53;43.92;;;-0.30;99.90;;;;;;2155204;66;20376;-74
2022/01/10 08:25:26;;;;;;;104.25;48.88;;;-0.30;99.90;;;;;;2155226;66;20342;-75
2022/01/10 08:28:11;;;;;;;88.97;43.42;;;-0.20;99.90;;;;;;2154651;66;20192;-72
2022/01/10 08:30:54;;;;;;;107.15;48.67;;;0.10;99.90;;;;;;2154296;66;20185;-74
2022/01/10 08:33:37;;;;;;;94.85;45.80;;;-0.20;99.90;;;;;;2159749;66;20314;-75
2022/01/10 08:36:21;;;;;;;111.47;50.15;;;-0.20;99.90;;;;;;2160198;66;20346;-76
2022/01/10 08:39:09;;;;;;;116.93;53.10;;;-0.10;99.90;;;;;;2162653;65;20333;-73
2022/01/10 08:41:53;;;;;;;96.45;45.00;;;-0.10;99.90;;;;;;2160616;65;20227;-76
2022/01/10 08:44:35;;;;;;;106.28;45.60;;;-0.10;99.90;;;;;;2172648;65;20305;-74
2022/01/10 08:47:17;;;;;;;105.85;53.90;;;0.10;99.90;;;;;;2161819;66;20190;-75
2022/01/10 08:49:59;;;;;;;76.53;41.80;;;0.00;99.90;;;;;;2168598;65;20219;-75
2022/01/10 08:52:43;;;;;;;91.45;47.40;;;0.50;99.90;;;;;;2162660;66;20232;-74
2022/01/10 08:55:27;;;;;;;90.05;43.20;;;0.10;99.90;;;;;;2152421;66;20323;-75
2022/01/10 08:58:10;;;;;;;101.38;47.78;;;0.20;99.90;;;;;;2157186;66;20317;-74
2022/01/10 09:00:54;;;;;;;95.20;46.42;;;0.30;99.90;;;;;;2156019;66;20297;-74
2022/01/10 09:03:40;;;;;;;80.30;42.95;;;0.30;99.90;;;;;;2145343;66;20178;-74
2022/01/10 09:06:27;;;;;;;84.38;46.25;;;0.40;99.90;;;;;;2148316;66;20195;-74
2022/01/10 09:09:12;;;;;;;87.43;46.42;;;0.40;99.90;;;;;;2154694;66;20225;-75
2022/01/10 09:11:55;;;;;;;96.53;51.03;;;0.40;99.90;;;;;;2149012;66;20204;-77
2022/01/10 09:14:39;;;;;;;100.47;51.20;;;0.40;99.90;;;;;;2163070;66;20342;-73
2022/01/10 09:17:21;;;;;;;115.78;53.22;;;0.60;99.90;;;;;;2166301;66;20204;-75
2022/01/10 09:20:05;;;;;;;87.50;47.03;;;0.50;99.90;;;;;;2162297;66;20221;-75
2022/01/10 09:22:47;;;;;;;89.18;43.50;;;0.50;99.90;;;;;;2170758;65;20780;-76
2022/01/10 09:25:30;;;;;;;91.57;47.50;;;1.10;99.90;;;;;;2148451;66;20299;-79
2022/01/10 09:28:12;;;;;;;99.97;54.00;;;0.80;99.90;;;;;;2138541;66;20191;-72
2022/01/10 09:30:55;;;;;;;82.68;43.33;;;0.90;99.90;;;;;;2139388;66;20420;-73
2022/01/10 09:33:36;;;;;;;90.70;48.47;;;1.00;99.90;;;;;;2142829;66;20360;-76
2022/01/10 09:36:28;;;;;;;81.20;44.20;;;0.80;99.90;;;;;;2136775;67;20423;-74
2022/01/10 09:39:09;;;;;;;86.80;44.92;;;0.90;99.90;;;;;;2118615;67;20193;-79
2022/01/10 09:41:52;;;;;;;80.50;42.65;;;0.90;99.90;;;;;;2144445;66;20178;-77
2022/01/10 09:44:34;;;;;;;78.53;42.50;;;1.00;99.90;;;;;;2140084;66;20265;-74
2022/01/10 09:47:23;;;;;;;96.38;51.35;;;1.00;99.90;;;;;;2160604;66;20328;-74
2022/01/10 09:50:09;;;;;;;90.93;47.35;;;1.10;99.90;;;;;;2165658;66;20535;-74
2022/01/10 09:52:51;;;;;;;76.55;40.70;;;1.20;99.90;;;;;;2161303;65;20834;-73
2022/01/10 09:55:34;;;;;;;96.93;51.92;;;1.20;99.90;;;;;;2171847;65;20217;-74
2022/01/10 09:58:16;;;;;;;83.97;43.90;;;1.30;99.90;;;;;;2169972;65;20181;-76
2022/01/10 10:01:01;;;;;;;92.68;47.20;;;1.30;99.90;;;;;;2179018;65;20335;-77
2022/01/10 10:03:47;;;;;;;81.10;42.15;;;1.40;99.90;;;;;;2176249;65;20779;-76
2022/01/10 10:06:32;;;;;;;87.95;46.22;;;1.50;99.90;;;;;;2168165;65;20226;-77
2022/01/10 10:09:17;;;;;;;71.38;38.55;;;1.50;99.90;;;;;;2161398;66;20247;-74
2022/01/10 10:11:59;;;;;;;98.78;43.50;;;1.50;99.90;;;;;;2161348;66;20172;-77
2022/01/10 10:14:44;;;;;;;66.05;37.38;;;1.60;99.90;;;;;;2152239;66;20259;-76
2022/01/10 10:17:30;;;;;;;82.07;39.03;;;1.60;99.90;;;;;;2137897;67;20378;-78
2022/01/10 10:20:21;;;;;;;76.00;40.85;;;1.70;99.90;;;;;;2132240;67;20195;-77
2022/01/10 10:23:06;;;;;;;73.20;42.40;;;1.80;99.90;;;;;;2130132;67;20235;-77
2022/01/10 10:25:53;;;;;;;70.13;39.30;;;1.80;99.90;;;;;;2130153;67;20777;-75
2022/01/10 10:28:36;;;;;;;68.60;38.05;;;1.90;99.90;;;;;;2138956;66;20215;-75
2022/01/10 10:31:50;;;;;;;70.55;38.65;;;2.00;99.90;;;;;;2132999;67;20379;-73
2022/01/10 10:34:33;;;;;;;67.43;37.50;;;2.00;99.90;;;;;;2131812;67;20244;-74
2022/01/10 10:37:16;;;;;;;60.25;37.22;;;2.50;99.90;;;;;;2132626;67;20209;-73
2022/01/10 10:39:59;;;;;;;63.88;32.25;;;2.20;99.90;;;;;;2134168;67;20268;-74
2022/01/10 10:42:45;;;;;;;54.17;32.80;;;2.30;99.90;;;;;;2137524;67;20363;-80
2022/01/10 10:45:29;;;;;;;62.55;35.67;;;2.40;99.90;;;;;;2125040;67;20343;-76
2022/01/10 10:48:12;;;;;;;66.25;35.05;;;2.40;99.90;;;;;;2142000;66;20287;-73
2022/01/10 10:50:57;;;;;;;63.50;33.78;;;2.50;99.90;;;;;;2130193;67;20644;-77
2022/01/10 10:53:40;;;;;;;71.95;37.35;;;2.50;99.90;;;;;;2122951;67;20331;-77
2022/01/10 10:56:25;;;;;;;63.28;37.20;;;2.30;99.90;;;;;;2126091;67;20200;-76
2022/01/10 10:59:07;;;;;;;53.33;32.15;;;2.70;99.90;;;;;;2141702;66;20726;-80
2022/01/10 11:01:51;;;;;;;68.30;37.78;;;2.70;99.90;;;;;;2147885;66;20274;-78
2022/01/10 11:04:32;;;;;;;53.20;33.20;;;3.00;99.90;;;;;;2139304;66;20163;-79
2022/01/10 11:07:22;;;;;;;61.67;31.90;;;3.80;99.90;;;;;;2146023;66;20734;-75
2022/01/10 11:10:07;;;;;;;52.40;29.00;;;3.00;99.90;;;;;;2131355;67;20179;-73
2022/01/10 11:12:53;;;;;;;48.63;27.75;;;3.10;99.90;;;;;;2137703;66;20186;-73
2022/01/10 11:15:39;;;;;;;49.80;28.90;;;3.20;99.90;;;;;;2153359;66;20177;-74
2022/01/10 11:18:24;;;;;;;48.33;28.02;;;3.30;99.90;;;;;;2158916;66;20809;-73
2022/01/10 11:21:06;;;;;;;43.13;26.40;;;3.50;99.90;;;;;;2161579;66;20183;-73
2022/01/10 11:23:50;;;;;;;43.15;26.42;;;3.80;99.90;;;;;;2174433;65;20346;-74
2022/01/10 11:26:39;;;;;;;27.40;18.27;;;4.20;99.90;;;;;;2183000;65;20834;-73
2022/01/10 11:29:29;;;;;;;26.70;17.90;;;4.60;99.90;;;;;;2182034;65;20258;-73
2022/01/10 11:32:16;;;;;;;23.00;15.90;;;5.10;99.90;;;;;;2182538;65;20247;-73
2022/01/10 11:35:06;;;;;;;22.52;14.27;;;5.60;99.90;;;;;;2176823;65;20167;-74
2022/01/10 11:37:47;;;;;;;22.83;13.23;;;6.10;99.90;;;;;;2197929;65;20260;-73
2022/01/10 11:40:30;;;;;;;22.17;13.88;;;6.50;99.90;;;;;;2190349;65;20178;-74
2022/01/10 11:43:41;;;;;;;20.30;13.05;;;6.90;99.90;;;;;;2199659;65;20392;-73
2022/01/10 11:46:47;;;;;;;17.90;12.18;;;7.30;99.90;;;;;;2187013;65;20336;-76
2022/01/10 11:49:31;;;;;;;18.10;11.75;;;7.60;99.90;;;;;;2175700;65;20184;-77
2022/01/10 11:52:20;;;;;;;19.05;12.38;;;7.70;99.90;;;;;;2177053;65;20250;-76
2022/01/10 11:55:10;;;;;;;19.20;12.70;;;7.90;99.90;;;;;;2179773;65;20717;-76
2022/01/10 11:58:02;;;;;;;32.90;13.98;;;7.90;99.90;;;;;;2165502;66;20362;-78
2022/01/10 12:00:48;;;;;;;21.95;12.68;;;7.80;99.90;;;;;;2172954;65;20316;-78
2022/01/10 12:03:31;;;;;;;18.98;12.35;;;7.80;99.90;;;;;;2155761;66;20214;-78
2022/01/10 12:06:14;;;;;;;20.13;12.52;;;7.80;99.90;;;;;;2151085;66;20428;-76
2022/01/10 12:08:56;;;;;;;17.40;12.18;;;7.80;99.90;;;;;;2159639;66;20165;-77
2022/01/10 12:11:40;;;;;;;21.75;11.43;;;7.70;99.90;;;;;;2153611;66;20207;-74
2022/01/10 12:14:22;;;;;;;20.83;12.27;;;7.70;99.90;;;;;;2157010;66;20218;-75
2022/01/10 12:17:04;;;;;;;26.60;13.18;;;7.60;99.90;;;;;;2159994;66;20692;-71
2022/01/10 12:19:47;;;;;;;17.58;11.13;;;7.50;99.90;;;;;;2161959;66;20282;-74
2022/01/10 12:22:31;;;;;;;;;;;7.60;99.90;;;;;;2162462;66;20177;-73
2022/01/10 12:25:13;;;;;;;22.75;12.23;;;7.60;99.90;;;;;;2161938;66;20072;-73
2022/01/10 12:27:57;;;;;;;24.25;11.75;;;7.60;99.90;;;;;;2154630;66;20181;-72
2022/01/10 12:30:39;;;;;;;17.70;12.32;;;7.70;99.90;;;;;;2169091;65;20833;-71
2022/01/10 12:33:21;;;;;;;21.30;13.43;;;7.70;99.90;;;;;;2176464;65;20376;-72
2022/01/10 12:36:05;;;;;;;24.65;13.82;;;7.80;99.90;;;;;;2190016;65;20403;-74
2022/01/10 12:38:58;;;;;;;17.25;11.75;;;8.00;99.90;;;;;;2185043;65;20235;-75
2022/01/10 12:41:44;;;;;;;19.10;12.30;;;8.20;99.90;;;;;;2170857;65;20176;-69
2022/01/10 12:44:29;;;;;;;17.55;10.93;;;8.60;99.90;;;;;;2161804;66;20337;-74
2022/01/10 12:47:14;;;;;;;17.20;10.02;;;9.10;99.90;;;;;;2169064;66;20223;-74
2022/01/10 12:49:59;;;;;;;14.68;11.38;;;9.50;99.90;;;;;;2168368;66;20258;-74
2022/01/10 12:52:44;;;;;;;19.10;10.68;;;9.90;99.90;;;;;;2162844;66;20869;-74
2022/01/10 12:55:29;;;;;;;15.68;10.05;;;10.50;99.90;;;;;;2157708;66;20310;-73
2022/01/10 12:58:11;;;;;;;16.13;9.27;;;11.00;99.90;;;;;;2171202;66;20227;-73
2022/01/10 13:00:53;;;;;;;13.38;8.13;;;11.50;99.90;;;;;;2169717;66;20270;-73
2022/01/10 13:03:35;;;;;;;15.40;7.93;;;12.00;99.90;;;;;;2157086;66;20264;-73
2022/01/10 13:06:21;;;;;;;12.45;8.43;;;12.40;99.90;;;;;;2147597;66;20190;-73
2022/01/10 13:09:10;;;;;;;11.82;8.90;;;12.80;99.90;;;;;;2149400;66;20184;-75
2022/01/10 13:12:12;;;;;;;14.75;9.18;;;13.20;99.90;;;;;;2146612;66;20170;-73
2022/01/10 13:14:53;;;;;;;16.05;9.93;;;13.40;99.90;;;;;;2156980;66;20486;-73
2022/01/10 13:17:36;;;;;;;13.32;8.50;;;13.90;99.90;;;;;;2153627;66;20214;-73
2022/01/10 13:20:20;;;;;;;12.60;9.20;;;14.20;99.90;;;;;;2155386;66;20384;-74
2022/01/10 13:23:04;;;;;;;12.88;10.20;;;14.60;99.90;;;;;;2159998;66;20337;-75
2022/01/10 13:25:49;;;;;;;14.65;9.23;;;14.60;99.90;;;;;;2152700;66;20923;-75
2022/01/10 13:28:42;;;;;;;17.23;9.75;;;14.70;99.90;;;;;;2148602;66;20199;-75
2022/01/10 13:31:37;;;;;;;11.07;6.88;;;14.80;99.90;;;;;;2140001;66;20174;-73
2022/01/10 13:34:26;;;;;;;14.50;8.00;;;14.70;99.90;;;;;;2139868;67;20230;-72
2022/01/10 13:37:09;;;;;;;16.40;8.45;;;14.50;99.90;;;;;;2126875;67;20204;-73
2022/01/10 13:40:06;;;;;;;15.27;8.30;;;14.20;99.90;;;;;;2123858;67;20203;-73
2022/01/10 13:42:50;;;;;;;18.67;8.43;;;14.00;99.90;;;;;;2125148;67;20335;-74
2022/01/10 13:45:57;;;;;;;12.15;8.00;;;13.60;99.90;;;;;;2139191;67;20387;-74
2022/01/10 13:48:41;;;;;;;16.15;8.20;;;13.30;99.90;;;;;;2141819;66;20255;-71
2022/01/10 13:51:23;;;;;;;13.82;7.47;;;13.00;99.90;;;;;;2150321;66;20734;-74
2022/01/10 13:54:05;;;;;;;13.75;8.93;;;12.80;99.90;;;;;;2145865;66;20674;-72
2022/01/10 13:56:47;;;;;;;14.13;7.70;;;12.60;99.90;;;;;;2139488;67;20667;-72
2022/01/10 13:59:34;;;;;;;13.45;8.25;;;12.60;99.90;;;;;;2127799;67;20768;-72
2022/01/10 14:02:19;;;;;;;19.23;8.38;;;12.50;99.90;;;;;;2127860;67;20295;-74
2022/01/10 14:05:20;;;;;;;14.88;9.40;;;12.40;99.90;;;;;;2115921;67;20618;-75
2022/01/10 14:08:03;;;;;;;14.07;8.98;;;12.10;99.90;;;;;;2138089;66;20218;-74
2022/01/10 14:10:47;;;;;;;19.25;10.88;;;11.60;99.90;;;;;;2151896;66;20291;-73